Port Vila Bauerfield Airport
NVVV : now visible

Airfield :











YOU CAN JOIN US ON...

 
LOGIN :

Register | Disclaimer

   EN    FR    IT 

 









Legend :    VFR   Marginal VFR   IFR   Intensive IFR   Very Intensive IFR
Visi :
Ceiling :
>= 8 km
>= 3000ft
5 to 8 km
1000 to 3000 ft
1500m to 5 km
500 to 1000 ft
800 to 1500m
200 to 500 ft
< 800m
< 200 ft
Symbols :   Thunderstorms  Fog  Heavy snow  Heavy precipitations  Wind > 20 kt






- Airport Elevation : 70 ft
- IATA code : VLI


NVVV - Port Vila Bauerfield

CURRENT METAR :
  • 241900Z 05007KT 9999 SCT020 OVC100 23/21 Q1010 RERA

EXPIRED METARs :
  • 241800Z 08008KT 9999 -RA SCT020 OVC100 22/21 Q1011

TAF TAF NVVV
Valid from the 24 at 18:00 until the 25 at 18:00 UTC


241700Z 2418/2518 13006KT 9999 SCT018 BKN040 OVC110 INTER 2418/2424 7000 -TSRA SCT008 FEW020CB OVC035
NFFF FIR / Oceania



MET'MAP, your aeronautical weather chart ! - Copyright ORBIFLY December 2007 - Disclaimer

ORBIFLY MET'MAP TEAM :

Programming & Development : Alexandra Zaïnal
Original concept : Baudouin d'Aumeries
Technical & hardware support : Manuel Goepfert
Assistance : Marc-Olivier Méhu

Contact : metmap@orbifly.com




SOURCES & CREDITS :

   NOAA       Earth
Advisory